Peconic, NY (11958)

9:53 PM EST on November 23, 2014 (GMT -0500)
Richmond Creek | Change Station
CLOSE
Current Station
Personal Weather Station
Location: Peconic, NY
Elevation: 43 ft
Nearby Weather Stations
Active Advisory: Wind Advisory

Elev 43 ft 41.03 °N, 72.45 °W | Updated 5 seconds ago

Clear
Clear
44.4 °F
Feels Like 44 °F
N
2.0
Wind Variable Wind from SSE
Gusts 3.0 mph

Today
High -- | Low -- °F
--% Chance of Precip.
Yesterday
High -- | Low -- °F
Precip. -- in
6:46 AM 4:25 PM
Waxing Crescent, 3% visible
Pressure 30.14 in
Visibility 7.0 miles
Clouds Clear
Windchill 44 °F
Dew Point 44 °F
Humidity 97%
Rainfall 0.00 in
Snow Depth Not available.
UV 0 out of 12
Pollen .10 out of 12
Air Quality Not available.
Flu Activity Not available.
METAR KFOK 240153Z AUTO 00000KT 7SM CLR 03/01 A3014 RMK AO2 SLP207 T00330006 TSNO

More Conditions Fewer Conditions

Pressure 30.14 in
Visibility 7.0 miles
Clouds Clear
Windchill 44 °F
Dew Point 44 °F
Humidity 97%
Rainfall 0.00 in
Snow Depth Not available.
UV 0 out of 12
Pollen .10 out of 12
Air Quality Not available.
Flu Activity Not available.
METAR KFOK 240153Z AUTO 00000KT 7SM CLR 03/01 A3014 RMK AO2 SLP207 T00330006 TSNO

More Conditions Fewer Conditions

10-Day Weather Forecast

Almanac

Astronomy

Nov. 23, 2014 Rise Set
Actual Time
Civil Twilight
Nautical Twilight
Astronomical Twilight
Moon
Length of Visible Light
Length of Day
Tomorrow will be .
, % of the Moon is Illuminated

Today's Extremes

State Highs State Lows

Community

WunderPhotos

Upload Photos

1,773,257 photos uploaded!

WunderBlogs® & News

Nearby

Air Quality

  Air Quality AQ Index Pollutant
Not available.

Snow Depth

Station Depth Elevation

Earthquake Activity

City Distance Mag. Time & Date
Minimum magnitude displayed is 2.5.

Coastal Water Temperatures

Place Temperature

Nearby Weather Stations